createdAt,value
2023-02-12T00:02:25.769Z,24.03
2023-02-12T00:04:52.454Z,22.57
2023-02-12T00:07:18.893Z,23.07
2023-02-12T00:09:45.367Z,21.87
2023-02-12T00:12:11.772Z,22.37
2023-02-12T00:14:38.299Z,21.00
2023-02-12T00:17:04.827Z,22.93
2023-02-12T00:19:31.542Z,24.60
2023-02-12T00:21:57.989Z,23.67
2023-02-12T00:24:24.367Z,22.40
2023-02-12T00:26:51.016Z,20.57
2023-02-12T00:29:17.412Z,21.57
2023-02-12T00:31:43.986Z,23.53
2023-02-12T00:34:11.409Z,22.20
2023-02-12T00:36:37.835Z,21.03
2023-02-12T00:39:04.799Z,22.03
2023-02-12T00:41:31.335Z,23.60
2023-02-12T00:43:58.161Z,23.90
2023-02-12T00:46:24.858Z,26.40
2023-02-12T00:48:51.575Z,24.70
2023-02-12T00:51:18.026Z,26.80
2023-02-12T00:53:44.436Z,24.87
2023-02-12T00:56:10.923Z,24.57
2023-02-12T00:58:37.488Z,26.33
2023-02-12T01:01:03.951Z,27.07
2023-02-12T01:03:30.590Z,24.50
2023-02-12T01:05:57.826Z,25.57
2023-02-12T01:08:24.870Z,23.73
2023-02-12T01:11:00.439Z,26.30
2023-02-12T01:13:27.670Z,25.53
2023-02-12T01:16:10.677Z,26.20
2023-02-12T01:18:37.954Z,25.63
2023-02-12T01:21:31.926Z,27.60
2023-02-12T01:23:58.810Z,27.03
2023-02-12T01:26:26.483Z,27.67
2023-02-12T01:28:59.445Z,25.97
2023-02-12T01:31:29.082Z,28.70
2023-02-12T01:33:59.322Z,23.90
2023-02-12T01:36:28.042Z,22.63
2023-02-12T01:38:55.199Z,23.77
2023-02-12T01:41:24.169Z,24.70
2023-02-12T01:44:07.149Z,24.40
2023-02-12T01:46:33.707Z,23.10
2023-02-12T01:49:01.724Z,24.70
2023-02-12T01:51:29.384Z,26.77
2023-02-12T01:54:01.771Z,25.50
2023-02-12T01:56:29.152Z,24.70
2023-02-12T01:58:57.692Z,23.47
2023-02-12T02:01:30.588Z,21.57
2023-02-12T02:04:04.156Z,21.50
2023-02-12T02:06:53.985Z,20.70
2023-02-12T02:09:20.503Z,20.80
2023-02-12T02:12:05.670Z,21.80
2023-02-12T02:14:35.491Z,20.47
2023-02-12T02:17:32.709Z,21.90
2023-02-12T02:20:17.613Z,21.00
2023-02-12T02:22:49.999Z,22.27
2023-02-12T02:25:47.086Z,21.23
2023-02-12T02:28:45.835Z,22.00
2023-02-12T02:31:21.840Z,21.53
2023-02-12T02:33:57.331Z,21.63
2023-02-12T02:36:58.080Z,23.00
2023-02-12T02:39:39.425Z,22.13
2023-02-12T02:42:23.707Z,23.00
2023-02-12T02:44:55.022Z,23.17
2023-02-12T02:47:29.430Z,22.83
2023-02-12T02:50:12.377Z,23.27
2023-02-12T02:52:52.499Z,21.30
2023-02-12T02:55:22.273Z,22.80
2023-02-12T02:57:56.014Z,22.97
2023-02-12T03:00:33.738Z,20.10
2023-02-12T03:03:07.837Z,20.97
2023-02-12T03:05:45.283Z,20.50
2023-02-12T03:08:24.013Z,21.40
2023-02-12T03:10:59.653Z,23.57
2023-02-12T03:13:48.904Z,21.23
2023-02-12T03:16:26.178Z,21.13
2023-02-12T03:18:59.851Z,20.23
2023-02-12T03:21:41.448Z,19.80
2023-02-12T03:24:23.847Z,18.77
2023-02-12T03:27:15.128Z,20.33
2023-02-12T03:29:41.711Z,19.70
2023-02-12T03:32:54.836Z,20.77
2023-02-12T03:35:26.400Z,19.70
2023-02-12T03:38:10.684Z,19.43
2023-02-12T03:40:56.102Z,18.90
2023-02-12T03:43:33.614Z,21.67
2023-02-12T03:46:03.186Z,20.70
2023-02-12T03:48:46.040Z,21.40
2023-02-12T03:51:34.981Z,19.70
2023-02-12T03:54:02.461Z,20.97
2023-02-12T03:56:37.681Z,21.00
2023-02-12T03:59:05.444Z,21.37
2023-02-12T04:01:34.792Z,21.87
2023-02-12T04:04:05.930Z,23.23
2023-02-12T04:06:32.727Z,22.57
2023-02-12T04:09:03.631Z,26.70
2023-02-12T04:11:47.562Z,23.30
2023-02-12T04:14:20.121Z,24.27
2023-02-12T04:17:08.937Z,23.70
2023-02-12T04:20:08.043Z,23.87
2023-02-12T04:22:46.864Z,22.70
2023-02-12T04:25:52.117Z,21.03
2023-02-12T04:28:53.621Z,21.80
2023-02-12T04:31:53.813Z,20.40
2023-02-12T04:34:32.211Z,19.50
2023-02-12T04:36:58.564Z,21.97
2023-02-12T04:39:31.374Z,23.13
2023-02-12T04:42:00.031Z,23.97
2023-02-12T04:44:30.814Z,23.60
2023-02-12T04:46:57.552Z,24.07
2023-02-12T04:49:24.981Z,23.40
2023-02-12T04:51:51.802Z,24.47
2023-02-12T04:54:20.194Z,25.10
2023-02-12T04:56:46.895Z,23.90
2023-02-12T04:59:13.902Z,24.50
2023-02-12T05:01:41.358Z,25.40
2023-02-12T05:04:10.442Z,27.63
2023-02-12T05:06:38.602Z,26.00
2023-02-12T05:09:06.688Z,26.60
2023-02-12T05:11:33.294Z,24.87
2023-02-12T05:13:59.967Z,25.50
2023-02-12T05:16:26.496Z,25.27
2023-02-12T05:18:52.962Z,24.17
2023-02-12T05:21:19.430Z,23.43
2023-02-12T05:23:45.831Z,25.20
2023-02-12T05:26:16.547Z,25.07
2023-02-12T05:28:43.099Z,25.07
2023-02-12T05:31:13.610Z,24.80
2023-02-12T05:33:43.767Z,23.70
2023-02-12T05:36:13.564Z,22.40
2023-02-12T05:38:40.592Z,22.53
2023-02-12T05:41:09.576Z,22.43
2023-02-12T05:43:36.353Z,21.60
2023-02-12T05:46:04.713Z,22.97
2023-02-12T05:48:31.820Z,23.13
2023-02-12T05:51:03.203Z,20.80
2023-02-12T05:53:30.285Z,19.77
2023-02-12T05:56:16.688Z,20.03
2023-02-12T05:58:46.500Z,21.27
2023-02-12T06:01:23.653Z,22.67
2023-02-12T06:03:50.083Z,22.00
2023-02-12T06:06:16.745Z,20.33
2023-02-12T06:08:43.286Z,22.03
2023-02-12T06:11:14.302Z,21.17
2023-02-12T06:13:41.459Z,20.77
2023-02-12T06:16:16.015Z,21.17
2023-02-12T06:18:42.516Z,21.33
2023-02-12T06:21:08.959Z,21.83
2023-02-12T06:23:35.391Z,22.50
2023-02-12T06:26:01.780Z,22.73
2023-02-12T06:28:28.361Z,22.90
2023-02-12T06:30:54.859Z,24.27
2023-02-12T06:33:21.423Z,24.37
2023-02-12T06:35:47.807Z,24.13
2023-02-12T06:38:14.527Z,24.60
2023-02-12T06:40:40.958Z,24.20
2023-02-12T06:43:07.723Z,23.17
2023-02-12T06:45:35.233Z,23.90
2023-02-12T06:48:01.794Z,23.67
2023-02-12T06:50:28.815Z,25.47
2023-02-12T06:52:55.188Z,25.00
2023-02-12T06:55:21.797Z,25.10
2023-02-12T06:57:48.221Z,24.70
2023-02-12T07:00:14.884Z,23.50
2023-02-12T07:02:41.518Z,27.50
2023-02-12T07:05:08.231Z,24.70
2023-02-12T07:07:34.765Z,25.20
2023-02-12T07:10:01.273Z,28.53
2023-02-12T07:12:27.692Z,25.77
2023-02-12T07:14:54.172Z,25.60
2023-02-12T07:17:20.551Z,23.30
2023-02-12T07:19:46.970Z,25.30
2023-02-12T07:22:13.331Z,25.33
2023-02-12T07:24:39.760Z,27.03
2023-02-12T07:27:06.260Z,25.70
2023-02-12T07:29:32.810Z,25.90
2023-02-12T07:31:59.341Z,25.87
2023-02-12T07:34:25.844Z,23.73
2023-02-12T07:36:52.241Z,24.20
2023-02-12T07:39:18.640Z,23.97
2023-02-12T07:41:45.008Z,26.13
2023-02-12T07:44:13.020Z,26.87
2023-02-12T07:46:48.053Z,26.73
2023-02-12T07:49:17.967Z,27.33
2023-02-12T07:51:44.671Z,27.60
2023-02-12T07:54:12.328Z,27.70
2023-02-12T07:56:39.874Z,28.27
2023-02-12T07:59:10.373Z,28.57
2023-02-12T08:01:39.384Z,27.60
2023-02-12T08:04:11.350Z,28.50
2023-02-12T08:06:40.228Z,28.53
2023-02-12T08:09:09.818Z,28.93
2023-02-12T08:11:37.460Z,27.33
2023-02-12T08:14:04.703Z,26.67
2023-02-12T08:16:35.433Z,27.37
2023-02-12T08:19:15.845Z,27.77
2023-02-12T08:21:44.143Z,28.67
2023-02-12T08:24:11.526Z,30.47
2023-02-12T08:26:39.271Z,30.03
2023-02-12T08:29:09.288Z,30.90
2023-02-12T08:31:38.643Z,31.43
2023-02-12T08:34:05.802Z,30.17
2023-02-12T08:36:38.753Z,31.60
2023-02-12T08:39:07.926Z,30.10
2023-02-12T08:41:35.502Z,32.80
2023-02-12T08:44:04.193Z,30.83
2023-02-12T08:46:33.609Z,32.43
2023-02-12T08:49:02.874Z,33.37
2023-02-12T08:51:33.155Z,33.50
2023-02-12T08:54:01.906Z,32.17
2023-02-12T08:56:30.012Z,32.10
2023-02-12T08:59:00.662Z,32.10
2023-02-12T09:01:29.539Z,30.80
2023-02-12T09:03:56.050Z,31.07
2023-02-12T09:06:24.653Z,32.87
2023-02-12T09:08:52.149Z,32.70
2023-02-12T09:11:32.735Z,31.87
2023-02-12T09:14:03.534Z,35.23
2023-02-12T09:16:32.259Z,33.30
2023-02-12T09:18:59.011Z,33.40
2023-02-12T09:21:25.744Z,34.40
2023-02-12T09:23:52.843Z,35.40
2023-02-12T09:26:22.329Z,33.57
2023-02-12T09:28:50.827Z,32.30
2023-02-12T09:31:22.958Z,31.80
2023-02-12T09:33:52.272Z,33.67
2023-02-12T09:36:21.161Z,35.33
2023-02-12T09:38:48.955Z,35.37
2023-02-12T09:41:42.633Z,36.30
2023-02-12T09:44:17.855Z,34.00
2023-02-12T09:47:03.531Z,34.07
2023-02-12T09:49:56.210Z,33.40
2023-02-12T09:52:27.678Z,36.90
2023-02-12T09:54:54.577Z,32.47
2023-02-12T09:57:29.389Z,34.70
2023-02-12T10:00:00.289Z,35.20
2023-02-12T10:02:26.918Z,33.40
2023-02-12T10:05:01.301Z,36.77
2023-02-12T10:07:53.409Z,37.60
2023-02-12T10:10:47.478Z,34.90
2023-02-12T10:13:46.688Z,35.30
2023-02-12T10:16:25.535Z,32.43
2023-02-12T10:19:02.339Z,35.40
2023-02-12T10:21:46.947Z,33.57
2023-02-12T10:24:19.157Z,35.90
2023-02-12T10:26:51.441Z,35.80
2023-02-12T10:29:25.067Z,36.67
2023-02-12T10:32:04.792Z,35.53
2023-02-12T10:34:36.928Z,34.70
2023-02-12T10:37:11.366Z,33.00
2023-02-12T10:40:07.258Z,34.20
2023-02-12T10:42:43.368Z,32.80
2023-02-12T10:45:19.978Z,35.43
2023-02-12T10:47:49.793Z,35.73
2023-02-12T10:50:36.410Z,35.90
2023-02-12T10:53:05.661Z,34.93
2023-02-12T10:55:34.952Z,34.80
2023-02-12T10:58:03.730Z,35.97
2023-02-12T11:00:34.664Z,37.73
2023-02-12T11:03:05.140Z,36.43
2023-02-12T11:05:35.848Z,33.37
2023-02-12T11:08:02.949Z,35.27
2023-02-12T11:10:41.802Z,34.37
2023-02-12T11:13:27.828Z,36.20
2023-02-12T11:15:55.300Z,37.60
2023-02-12T11:18:26.830Z,36.10
2023-02-12T11:20:58.539Z,36.00
2023-02-12T11:23:29.621Z,36.97
2023-02-12T11:26:19.413Z,35.10
2023-02-12T11:29:24.375Z,33.00
2023-02-12T11:32:08.332Z,35.13
2023-02-12T11:34:35.783Z,32.90
2023-02-12T11:37:03.085Z,34.00
2023-02-12T11:39:35.897Z,32.77
2023-02-12T11:42:15.316Z,34.83
2023-02-12T11:44:48.140Z,33.47
2023-02-12T11:47:22.185Z,35.87
2023-02-12T11:49:55.944Z,32.03
2023-02-12T11:52:27.285Z,33.90
2023-02-12T11:54:59.168Z,34.20
2023-02-12T11:58:02.818Z,34.80
2023-02-12T12:00:35.560Z,33.60
2023-02-12T12:03:17.521Z,33.10
2023-02-12T12:05:52.617Z,32.77
2023-02-12T12:08:28.771Z,31.30
2023-02-12T12:11:04.718Z,30.40
2023-02-12T12:13:38.597Z,33.00
2023-02-12T12:16:30.000Z,30.40
2023-02-12T12:19:20.822Z,29.10
2023-02-12T12:21:58.782Z,29.67
2023-02-12T12:24:52.205Z,30.00
2023-02-12T12:27:52.119Z,30.70
2023-02-12T12:30:41.993Z,30.20
2023-02-12T12:33:26.259Z,30.80
2023-02-12T12:36:19.120Z,30.10
2023-02-12T12:38:57.067Z,31.30
2023-02-12T12:41:51.440Z,31.70
2023-02-12T12:44:20.831Z,31.40
2023-02-12T12:47:10.072Z,30.30
2023-02-12T12:50:18.391Z,30.30
2023-02-12T12:53:12.165Z,30.20
2023-02-12T12:55:41.580Z,30.40
2023-02-12T12:58:14.014Z,28.23
2023-02-12T13:01:10.028Z,30.07
2023-02-12T13:04:05.553Z,28.43
2023-02-12T13:07:09.613Z,28.50
2023-02-12T13:10:13.542Z,24.63
2023-02-12T13:13:01.250Z,26.80
2023-02-12T13:15:41.127Z,25.00
2023-02-12T13:18:17.169Z,28.20
2023-02-12T13:21:11.618Z,29.03
2023-02-12T13:23:56.407Z,26.97
2023-02-12T13:26:33.164Z,28.70
2023-02-12T13:29:11.930Z,27.83
2023-02-12T13:31:47.765Z,28.23
2023-02-12T13:34:16.216Z,27.30
2023-02-12T13:36:43.718Z,29.43
2023-02-12T13:39:25.444Z,27.57
2023-02-12T13:42:07.460Z,27.13
2023-02-12T13:44:52.400Z,27.67
2023-02-12T13:47:51.270Z,27.10
2023-02-12T13:50:27.847Z,26.60
2023-02-12T13:53:14.333Z,25.40
2023-02-12T13:56:02.402Z,24.27
2023-02-12T13:58:34.845Z,22.43
2023-02-12T14:01:14.266Z,20.60
2023-02-12T14:03:40.840Z,21.27
2023-02-12T14:06:14.368Z,21.67
2023-02-12T14:08:46.882Z,18.57
2023-02-12T14:11:17.263Z,18.60
2023-02-12T14:13:54.968Z,20.70
2023-02-12T14:16:41.659Z,18.30
2023-02-12T14:19:52.535Z,18.17
2023-02-12T14:22:27.911Z,18.90
2023-02-12T14:24:56.402Z,19.57
2023-02-12T14:27:27.740Z,19.57
2023-02-12T14:30:09.906Z,19.07
2023-02-12T14:32:45.316Z,18.37
2023-02-12T14:35:26.823Z,19.67
2023-02-12T14:37:58.168Z,16.97
2023-02-12T14:40:48.998Z,19.30
2023-02-12T14:43:54.460Z,17.83
2023-02-12T14:46:24.152Z,16.73
2023-02-12T14:48:55.780Z,16.70
2023-02-12T14:51:34.031Z,17.63
2023-02-12T14:54:01.209Z,15.90
2023-02-12T14:56:27.949Z,14.47
2023-02-12T14:58:58.817Z,15.90
2023-02-12T15:01:36.321Z,13.87
2023-02-12T15:04:20.103Z,14.10
2023-02-12T15:06:59.032Z,15.33
2023-02-12T15:09:39.010Z,14.43
2023-02-12T15:12:07.595Z,14.70
2023-02-12T15:14:42.994Z,16.43
2023-02-12T15:17:20.738Z,14.90
2023-02-12T15:20:02.640Z,15.47
2023-02-12T15:22:41.938Z,14.77
2023-02-12T15:25:28.027Z,13.80
2023-02-12T15:27:58.516Z,12.13
2023-02-12T15:30:32.306Z,14.07
2023-02-12T15:33:03.061Z,18.27
2023-02-12T15:35:32.776Z,13.50
2023-02-12T15:38:01.190Z,12.50
2023-02-12T15:40:31.599Z,12.80
2023-02-12T15:43:00.226Z,12.60
2023-02-12T15:45:30.167Z,13.00
2023-02-12T15:48:02.330Z,12.67
2023-02-12T15:50:31.217Z,13.73
2023-02-12T15:52:57.959Z,12.73
2023-02-12T15:55:27.392Z,12.87
2023-02-12T15:57:57.254Z,11.90
2023-02-12T16:00:41.337Z,11.03
2023-02-12T16:03:22.340Z,11.67
2023-02-12T16:05:50.193Z,9.13
2023-02-12T16:08:19.259Z,9.30
2023-02-12T16:10:51.523Z,9.33
2023-02-12T16:13:21.064Z,12.17
2023-02-12T16:16:04.776Z,11.10
2023-02-12T16:18:31.961Z,12.37
2023-02-12T16:21:15.901Z,13.13
2023-02-12T16:23:44.475Z,12.87
2023-02-12T16:26:23.789Z,13.30
2023-02-12T16:28:54.143Z,11.10
2023-02-12T16:31:23.804Z,13.27
2023-02-12T16:33:53.391Z,11.63
2023-02-12T16:36:19.766Z,13.40
2023-02-12T16:38:48.067Z,13.97
2023-02-12T16:41:20.460Z,11.47
2023-02-12T16:43:49.203Z,11.13
2023-02-12T16:46:18.326Z,10.00
2023-02-12T16:48:49.305Z,10.30
2023-02-12T16:51:29.571Z,11.17
2023-02-12T16:54:01.094Z,11.10
2023-02-12T16:56:31.389Z,14.27
2023-02-12T16:58:59.854Z,16.40
2023-02-12T17:01:32.870Z,15.67
2023-02-12T17:04:01.276Z,13.90
2023-02-12T17:06:29.595Z,12.10
2023-02-12T17:08:57.218Z,13.60
2023-02-12T17:11:24.503Z,13.60
2023-02-12T17:13:53.757Z,13.00
2023-02-12T17:16:30.400Z,13.50
2023-02-12T17:18:57.664Z,13.03
2023-02-12T17:21:28.108Z,11.93
2023-02-12T17:23:54.621Z,13.17
2023-02-12T17:26:24.718Z,13.47
2023-02-12T17:28:51.109Z,13.73
2023-02-12T17:31:17.839Z,13.87
2023-02-12T17:33:44.457Z,12.60
2023-02-12T17:36:12.171Z,14.87
2023-02-12T17:38:38.683Z,11.67
2023-02-12T17:41:10.522Z,12.20
2023-02-12T17:43:36.949Z,10.80
2023-02-12T17:46:09.503Z,10.60
2023-02-12T17:48:35.881Z,10.23
2023-02-12T17:51:02.288Z,11.37
2023-02-12T17:53:28.753Z,10.70
2023-02-12T17:55:55.216Z,10.53
2023-02-12T17:58:21.634Z,10.60
2023-02-12T18:00:48.061Z,11.00
2023-02-12T18:03:14.508Z,10.60
2023-02-12T18:05:42.653Z,11.67
2023-02-12T18:08:10.222Z,12.03
2023-02-12T18:10:41.682Z,12.40
2023-02-12T18:13:08.425Z,11.80
2023-02-12T18:15:35.084Z,10.60
2023-02-12T18:18:01.596Z,10.57
2023-02-12T18:20:28.124Z,10.40
2023-02-12T18:22:54.611Z,10.87
2023-02-12T18:25:21.134Z,11.33
2023-02-12T18:27:47.547Z,14.00
2023-02-12T18:30:14.502Z,10.50
2023-02-12T18:32:41.108Z,9.90
2023-02-12T18:35:08.381Z,9.47
2023-02-12T18:37:34.918Z,10.97
2023-02-12T18:40:01.516Z,8.80
2023-02-12T18:42:32.626Z,9.37
2023-02-12T18:44:59.144Z,11.33
2023-02-12T18:47:25.667Z,9.53
2023-02-12T18:49:52.221Z,10.77
2023-02-12T18:52:18.664Z,10.03
2023-02-12T18:54:45.070Z,10.00
2023-02-12T18:57:11.506Z,9.80
2023-02-12T18:59:38.028Z,9.73
2023-02-12T19:02:05.236Z,9.37
2023-02-12T19:04:31.865Z,10.13
2023-02-12T19:06:58.360Z,9.40
2023-02-12T19:09:26.162Z,10.50
2023-02-12T19:11:55.134Z,9.50
2023-02-12T19:14:23.400Z,10.83
2023-02-12T19:16:50.732Z,9.60
2023-02-12T19:19:20.188Z,9.10
2023-02-12T19:21:47.056Z,9.67
2023-02-12T19:24:15.412Z,8.80
2023-02-12T19:26:44.215Z,9.70
2023-02-12T19:29:12.356Z,7.03
2023-02-12T19:31:44.182Z,7.10
2023-02-12T19:34:21.705Z,7.13
2023-02-12T19:36:49.572Z,7.23
2023-02-12T19:39:22.274Z,6.80
2023-02-12T19:41:49.807Z,5.83
2023-02-12T19:44:19.148Z,5.40
2023-02-12T19:46:46.778Z,5.50
2023-02-12T19:49:22.640Z,5.63
2023-02-12T19:51:50.235Z,6.20
2023-02-12T19:54:18.573Z,6.10
2023-02-12T19:56:45.938Z,5.67
2023-02-12T19:59:18.255Z,6.20
2023-02-12T20:01:46.135Z,5.40
2023-02-12T20:04:14.658Z,6.13
2023-02-12T20:06:42.328Z,6.60
2023-02-12T20:09:10.586Z,7.33
2023-02-12T20:11:38.490Z,7.30
2023-02-12T20:14:07.741Z,6.00
2023-02-12T20:16:38.131Z,6.03
2023-02-12T20:19:11.357Z,6.20
2023-02-12T20:21:38.892Z,6.13
2023-02-12T20:24:05.760Z,6.80
2023-02-12T20:26:33.372Z,5.80
2023-02-12T20:29:03.308Z,6.30
2023-02-12T20:31:33.850Z,6.17
2023-02-12T20:34:02.924Z,6.93
2023-02-12T20:36:35.157Z,7.20
2023-02-12T20:39:01.695Z,7.03
2023-02-12T20:41:28.774Z,6.90
2023-02-12T20:43:56.023Z,7.33
2023-02-12T20:46:24.075Z,7.60
2023-02-12T20:48:50.879Z,6.77
2023-02-12T20:51:20.213Z,7.30
2023-02-12T20:53:47.587Z,6.73
2023-02-12T20:56:16.716Z,7.00
2023-02-12T20:58:44.990Z,7.37
2023-02-12T21:01:15.445Z,8.20
2023-02-12T21:03:41.893Z,7.90
2023-02-12T21:06:08.593Z,7.67
2023-02-12T21:08:39.502Z,9.23
2023-02-12T21:11:15.365Z,9.20
2023-02-12T21:13:50.394Z,8.20
2023-02-12T21:16:31.712Z,8.40
2023-02-12T21:18:58.623Z,9.33
2023-02-12T21:21:28.762Z,9.93
2023-02-12T21:23:57.219Z,8.40
2023-02-12T21:26:25.561Z,8.57
2023-02-12T21:28:53.143Z,8.57
2023-02-12T21:31:28.920Z,8.40
2023-02-12T21:33:56.990Z,10.40
2023-02-12T21:36:26.098Z,8.80
2023-02-12T21:38:53.468Z,9.33
2023-02-12T21:41:26.128Z,10.40
2023-02-12T21:43:57.051Z,9.40
2023-02-12T21:46:24.370Z,10.93
2023-02-12T21:48:51.060Z,12.10
2023-02-12T21:51:21.657Z,12.50
2023-02-12T21:53:49.961Z,14.07
2023-02-12T21:56:17.101Z,13.70
2023-02-12T21:58:44.560Z,14.67
2023-02-12T22:01:16.209Z,13.10
2023-02-12T22:03:46.028Z,13.17
2023-02-12T22:06:14.372Z,12.47
2023-02-12T22:08:40.942Z,13.57
2023-02-12T22:11:10.221Z,14.33
2023-02-12T22:13:37.597Z,14.97
2023-02-12T22:16:09.407Z,14.70
2023-02-12T22:18:36.110Z,14.50
2023-02-12T22:21:04.718Z,15.00
2023-02-12T22:23:31.366Z,14.17
2023-02-12T22:26:11.947Z,15.90
2023-02-12T22:28:43.957Z,13.33
2023-02-12T22:31:13.284Z,14.83
2023-02-12T22:33:40.128Z,14.20
2023-02-12T22:36:09.239Z,15.33
2023-02-12T22:38:37.524Z,16.23
2023-02-12T22:41:04.733Z,15.57
2023-02-12T22:43:33.629Z,13.97
2023-02-12T22:46:00.484Z,14.30
2023-02-12T22:48:28.479Z,12.43
2023-02-12T22:50:56.855Z,13.77
2023-02-12T22:53:24.540Z,12.90
2023-02-12T22:55:51.174Z,13.50
2023-02-12T22:58:18.189Z,14.33
2023-02-12T23:00:44.727Z,13.87
2023-02-12T23:03:11.188Z,16.00
2023-02-12T23:05:38.835Z,16.83
2023-02-12T23:08:06.370Z,16.30
2023-02-12T23:10:33.247Z,17.23
2023-02-12T23:13:01.494Z,15.30
2023-02-12T23:15:27.912Z,15.60
2023-02-12T23:17:54.427Z,16.10
2023-02-12T23:20:20.882Z,16.60
2023-02-12T23:22:47.267Z,16.60
2023-02-12T23:25:13.824Z,17.93
2023-02-12T23:27:40.225Z,17.33
2023-02-12T23:30:07.331Z,15.80
2023-02-12T23:32:33.737Z,14.70
2023-02-12T23:35:00.155Z,12.43
2023-02-12T23:37:26.571Z,12.33
2023-02-12T23:39:53.021Z,12.40
2023-02-12T23:42:19.440Z,11.00
2023-02-12T23:44:45.846Z,11.33
2023-02-12T23:47:12.373Z,12.67
2023-02-12T23:49:38.838Z,10.90
2023-02-12T23:52:05.327Z,12.60
2023-02-12T23:54:31.855Z,11.17
2023-02-12T23:56:58.333Z,10.90
2023-02-12T23:59:25.344Z,11.07
